Cowen, West Virginia
Current Conditions -  °F | °C
As of 3:15 PM on Wednesday 26 Nov 2014 (Local Time) from KLWB Reporting Station
Haze Haze  
Wind Chill:   Ceiling: 700
Heat Index:   Visibility: 5mi
Dew Point:   Wind: 5mph
Humidity: 93%   Direction: 180°S
Pressure: 29.94"   Gusts: NA
Location:  38.41°N, 80.56°W
Report Text: KLWB 262015Z AUTO 18004KT 5SM BR SCT003 OVC007 03/02 A2994 RMK AO2 T00280017
Loading
Personal Weather Stations






























Interactive Weather Map New forecast layout! Learn more

10-Day Weather Forecast

Advertisements
Track Severe Weather on mobile